Aérodrome :
LOGIN :

S'inscrire | Disclaimer

   EN    FR    IT 

 










Légende :    VFR   VFR Marginal   IFR   IFR Intensif   IFR Très Intensif
Visi : 
Plafond : 
>= 8 km
>= 3000ft
5 à 8 km
1000 à 3000 ft
1500m à 5 km
500 à 1000 ft
800 à 1500m
200 à 500 ft
< 800m
< 200 ft
Symboles :   Orages  Brouillard  Fortes neiges  Fortes précipitations  Vent > 20 kt
SIGMETs :   Divers  Orages  Givrage  Turbulence  Onde Orograph.  Cendres Volcan.







- Altitude de l'aérodrome : 2425 ft


ETHA - Altenstadt Army

DERNIER METAR :
  • 202220Z AUTO 26002KT //// // ////// 14/13 Q1017 ///

METARs EXPIRÉS :
  • 202120Z AUTO VRB01KT //// // ////// 14/14 Q1017 ///
  • 202020Z AUTO 02003KT //// // ////// 15/14 Q1017 ///
  • 201920Z AUTO 12002KT //// // ////// 17/15 Q1017 ///

TAF AMD TAF ETHA
Valide du 20 à 17h jusqu'au 21 à 03h UTC


201805Z 2017/2103 21006KT 9999 NSW SCT040 SCT120 CANCEL 1900
Pas de NOTAMs connus pour ce terrain.



MET'MAP, la Météo Aéronautique d'un coup d'oeil ! - Copyright ORBIFLY Décembre 2007 - Disclaimer

ORBIFLY MET'MAP TEAM :

Programmation & Développement : Alexandra Zaïnal
Conception & Développement : Baudouin d'Aumeries
Co-Programmation & Développement : Marc-Olivier Méhu
Soutien technique & logistique : Manuel Goepfert

Contact : metmap@orbifly.com




SOURCES & CREDITS :

   NOAA